sensor_id;sensor_type;location;lat;lon;timestamp;temperature;humidity
35497;DHT22;21609;49.298;6.844;2022-08-14T00:02:02;23.30;42.00
35497;DHT22;21609;49.298;6.844;2022-08-14T00:04:28;23.40;42.60
35497;DHT22;21609;49.298;6.844;2022-08-14T00:06:53;23.30;42.00
35497;DHT22;21609;49.298;6.844;2022-08-14T00:09:19;23.40;42.10
35497;DHT22;21609;49.298;6.844;2022-08-14T00:11:44;23.40;42.00
35497;DHT22;21609;49.298;6.844;2022-08-14T00:14:10;23.30;42.10
35497;DHT22;21609;49.298;6.844;2022-08-14T00:16:35;23.30;42.10
35497;DHT22;21609;49.298;6.844;2022-08-14T00:19:02;23.30;42.20
35497;DHT22;21609;49.298;6.844;2022-08-14T00:21:28;23.30;42.20
35497;DHT22;21609;49.298;6.844;2022-08-14T00:23:54;23.30;42.20
35497;DHT22;21609;49.298;6.844;2022-08-14T00:26:21;23.20;42.20
35497;DHT22;21609;49.298;6.844;2022-08-14T00:28:48;23.20;42.40
35497;DHT22;21609;49.298;6.844;2022-08-14T00:31:13;23.20;42.40
35497;DHT22;21609;49.298;6.844;2022-08-14T00:33:39;23.20;42.40
35497;DHT22;21609;49.298;6.844;2022-08-14T00:36:05;23.20;42.40
35497;DHT22;21609;49.298;6.844;2022-08-14T00:38:31;23.20;42.50
35497;DHT22;21609;49.298;6.844;2022-08-14T00:40:57;23.20;42.40
35497;DHT22;21609;49.298;6.844;2022-08-14T00:43:22;23.20;42.40
35497;DHT22;21609;49.298;6.844;2022-08-14T00:45:48;23.20;42.60
35497;DHT22;21609;49.298;6.844;2022-08-14T00:48:15;23.20;42.50
35497;DHT22;21609;49.298;6.844;2022-08-14T00:50:43;23.10;42.50
35497;DHT22;21609;49.298;6.844;2022-08-14T00:53:09;23.10;42.60
35497;DHT22;21609;49.298;6.844;2022-08-14T00:55:35;23.10;42.60
35497;DHT22;21609;49.298;6.844;2022-08-14T00:58:02;23.10;42.60
35497;DHT22;21609;49.298;6.844;2022-08-14T01:00:47;23.10;42.60
35497;DHT22;21609;49.298;6.844;2022-08-14T01:03:15;23.00;42.80
35497;DHT22;21609;49.298;6.844;2022-08-14T01:05:42;22.80;43.60
35497;DHT22;21609;49.298;6.844;2022-08-14T01:08:18;22.70;43.40
35497;DHT22;21609;49.298;6.844;2022-08-14T01:10:44;22.80;43.50
35497;DHT22;21609;49.298;6.844;2022-08-14T01:13:23;22.90;43.20
35497;DHT22;21609;49.298;6.844;2022-08-14T01:15:57;23.00;43.10
35497;DHT22;21609;49.298;6.844;2022-08-14T01:18:24;23.00;43.00
35497;DHT22;21609;49.298;6.844;2022-08-14T01:21:09;23.00;43.00
35497;DHT22;21609;49.298;6.844;2022-08-14T01:23:45;23.00;43.00
35497;DHT22;21609;49.298;6.844;2022-08-14T01:26:14;23.00;43.10
35497;DHT22;21609;49.298;6.844;2022-08-14T01:28:40;23.00;43.20
35497;DHT22;21609;49.298;6.844;2022-08-14T01:31:09;23.00;43.30
35497;DHT22;21609;49.298;6.844;2022-08-14T01:33:37;23.00;43.40
35497;DHT22;21609;49.298;6.844;2022-08-14T01:36:06;23.00;43.00
35497;DHT22;21609;49.298;6.844;2022-08-14T01:38:33;23.00;43.20
35497;DHT22;21609;49.298;6.844;2022-08-14T01:41:05;23.00;43.40
35497;DHT22;21609;49.298;6.844;2022-08-14T01:43:31;22.90;43.50
35497;DHT22;21609;49.298;6.844;2022-08-14T01:46:03;22.90;43.00
35497;DHT22;21609;49.298;6.844;2022-08-14T01:48:28;22.90;43.30
35497;DHT22;21609;49.298;6.844;2022-08-14T01:50:58;22.90;43.40
35497;DHT22;21609;49.298;6.844;2022-08-14T01:53:28;22.90;43.50
35497;DHT22;21609;49.298;6.844;2022-08-14T01:55:58;22.90;43.40
35497;DHT22;21609;49.298;6.844;2022-08-14T01:58:26;22.80;43.40
35497;DHT22;21609;49.298;6.844;2022-08-14T02:00:54;22.80;43.50
35497;DHT22;21609;49.298;6.844;2022-08-14T02:03:22;22.80;43.30
35497;DHT22;21609;49.298;6.844;2022-08-14T02:05:48;22.80;43.40
35497;DHT22;21609;49.298;6.844;2022-08-14T02:08:14;22.80;43.50
35497;DHT22;21609;49.298;6.844;2022-08-14T02:10:40;22.80;43.50
35497;DHT22;21609;49.298;6.844;2022-08-14T02:13:07;22.80;43.50
35497;DHT22;21609;49.298;6.844;2022-08-14T02:15:33;22.80;43.20
35497;DHT22;21609;49.298;6.844;2022-08-14T02:17:59;22.70;43.30
35497;DHT22;21609;49.298;6.844;2022-08-14T02:20:31;22.70;43.40
35497;DHT22;21609;49.298;6.844;2022-08-14T02:23:01;22.80;43.40
35497;DHT22;21609;49.298;6.844;2022-08-14T02:25:27;22.80;43.40
35497;DHT22;21609;49.298;6.844;2022-08-14T02:27:55;22.70;43.00
35497;DHT22;21609;49.298;6.844;2022-08-14T02:30:24;22.70;43.40
35497;DHT22;21609;49.298;6.844;2022-08-14T02:32:51;22.70;43.00
35497;DHT22;21609;49.298;6.844;2022-08-14T02:35:17;22.70;42.90
35497;DHT22;21609;49.298;6.844;2022-08-14T02:37:44;22.70;43.00
35497;DHT22;21609;49.298;6.844;2022-08-14T02:40:10;22.70;43.00
35497;DHT22;21609;49.298;6.844;2022-08-14T02:42:37;22.70;43.30
35497;DHT22;21609;49.298;6.844;2022-08-14T02:45:04;22.60;43.40
35497;DHT22;21609;49.298;6.844;2022-08-14T02:47:30;22.60;43.50
35497;DHT22;21609;49.298;6.844;2022-08-14T02:49:56;22.60;43.50
35497;DHT22;21609;49.298;6.844;2022-08-14T02:52:23;22.60;43.40
35497;DHT22;21609;49.298;6.844;2022-08-14T02:54:48;22.60;43.40
35497;DHT22;21609;49.298;6.844;2022-08-14T02:57:15;22.60;43.30
35497;DHT22;21609;49.298;6.844;2022-08-14T02:59:41;22.60;43.20
35497;DHT22;21609;49.298;6.844;2022-08-14T03:02:07;22.60;43.40
35497;DHT22;21609;49.298;6.844;2022-08-14T03:04:33;22.60;43.60
35497;DHT22;21609;49.298;6.844;2022-08-14T03:06:59;22.60;43.70
35497;DHT22;21609;49.298;6.844;2022-08-14T03:09:25;22.60;43.80
35497;DHT22;21609;49.298;6.844;2022-08-14T03:11:51;22.50;43.70
35497;DHT22;21609;49.298;6.844;2022-08-14T03:14:17;22.50;43.70
35497;DHT22;21609;49.298;6.844;2022-08-14T03:16:44;22.50;43.80
35497;DHT22;21609;49.298;6.844;2022-08-14T03:19:14;22.50;43.80
35497;DHT22;21609;49.298;6.844;2022-08-14T03:21:40;22.50;43.80
35497;DHT22;21609;49.298;6.844;2022-08-14T03:24:06;22.50;43.90
35497;DHT22;21609;49.298;6.844;2022-08-14T03:26:37;22.50;43.70
35497;DHT22;21609;49.298;6.844;2022-08-14T03:29:04;22.50;44.00
35497;DHT22;21609;49.298;6.844;2022-08-14T03:31:30;22.40;43.80
35497;DHT22;21609;49.298;6.844;2022-08-14T03:33:57;22.40;43.80
35497;DHT22;21609;49.298;6.844;2022-08-14T03:36:23;22.40;43.90
35497;DHT22;21609;49.298;6.844;2022-08-14T03:38:50;22.30;43.80
35497;DHT22;21609;49.298;6.844;2022-08-14T03:41:22;22.30;44.00
35497;DHT22;21609;49.298;6.844;2022-08-14T03:43:54;22.40;44.00
35497;DHT22;21609;49.298;6.844;2022-08-14T03:46:20;22.40;43.90
35497;DHT22;21609;49.298;6.844;2022-08-14T03:48:46;22.40;44.00
35497;DHT22;21609;49.298;6.844;2022-08-14T03:51:12;22.40;43.90
35497;DHT22;21609;49.298;6.844;2022-08-14T03:53:40;22.30;43.70
35497;DHT22;21609;49.298;6.844;2022-08-14T03:56:08;22.40;43.70
35497;DHT22;21609;49.298;6.844;2022-08-14T03:58:38;22.40;43.90
35497;DHT22;21609;49.298;6.844;2022-08-14T04:01:06;22.40;43.90
35497;DHT22;21609;49.298;6.844;2022-08-14T04:03:33;22.30;44.00
35497;DHT22;21609;49.298;6.844;2022-08-14T04:05:59;22.30;44.10
35497;DHT22;21609;49.298;6.844;2022-08-14T04:08:25;22.30;44.10
35497;DHT22;21609;49.298;6.844;2022-08-14T04:10:50;22.20;43.90
35497;DHT22;21609;49.298;6.844;2022-08-14T04:13:16;22.30;44.10
35497;DHT22;21609;49.298;6.844;2022-08-14T04:15:44;22.30;44.20
35497;DHT22;21609;49.298;6.844;2022-08-14T04:18:10;22.30;44.10
35497;DHT22;21609;49.298;6.844;2022-08-14T04:20:36;22.20;44.00
35497;DHT22;21609;49.298;6.844;2022-08-14T04:23:02;22.30;44.20
35497;DHT22;21609;49.298;6.844;2022-08-14T04:25:28;22.20;44.30
35497;DHT22;21609;49.298;6.844;2022-08-14T04:27:59;22.20;44.20
35497;DHT22;21609;49.298;6.844;2022-08-14T04:30:25;22.20;44.10
35497;DHT22;21609;49.298;6.844;2022-08-14T04:32:54;22.20;44.20
35497;DHT22;21609;49.298;6.844;2022-08-14T04:35:20;22.20;43.90
35497;DHT22;21609;49.298;6.844;2022-08-14T04:37:45;22.20;44.10
35497;DHT22;21609;49.298;6.844;2022-08-14T04:40:30;22.20;43.80
35497;DHT22;21609;49.298;6.844;2022-08-14T04:43:14;22.20;44.00
35497;DHT22;21609;49.298;6.844;2022-08-14T04:45:58;22.20;43.80
35497;DHT22;21609;49.298;6.844;2022-08-14T04:48:26;22.30;43.80
35497;DHT22;21609;49.298;6.844;2022-08-14T04:50:51;22.20;43.80
35497;DHT22;21609;49.298;6.844;2022-08-14T04:53:22;22.20;43.80
35497;DHT22;21609;49.298;6.844;2022-08-14T04:55:49;22.20;43.80
35497;DHT22;21609;49.298;6.844;2022-08-14T04:58:25;22.20;43.90
35497;DHT22;21609;49.298;6.844;2022-08-14T05:00:53;22.20;43.90
35497;DHT22;21609;49.298;6.844;2022-08-14T05:03:22;22.20;44.00
35497;DHT22;21609;49.298;6.844;2022-08-14T05:05:55;22.10;44.00
35497;DHT22;21609;49.298;6.844;2022-08-14T05:08:22;22.20;43.90
35497;DHT22;21609;49.298;6.844;2022-08-14T05:10:54;22.20;44.00
35497;DHT22;21609;49.298;6.844;2022-08-14T05:13:21;22.20;44.80
35497;DHT22;21609;49.298;6.844;2022-08-14T05:15:48;22.30;44.30
35497;DHT22;21609;49.298;6.844;2022-08-14T05:18:18;22.30;44.50
35497;DHT22;21609;49.298;6.844;2022-08-14T05:20:47;22.30;44.60
35497;DHT22;21609;49.298;6.844;2022-08-14T05:23:15;22.30;44.70
35497;DHT22;21609;49.298;6.844;2022-08-14T05:25:43;22.20;44.80
35497;DHT22;21609;49.298;6.844;2022-08-14T05:28:16;21.50;46.40
35497;DHT22;21609;49.298;6.844;2022-08-14T05:30:45;21.20;47.00
35497;DHT22;21609;49.298;6.844;2022-08-14T05:33:12;21.00;48.50
35497;DHT22;21609;49.298;6.844;2022-08-14T05:35:39;21.10;48.40
35497;DHT22;21609;49.298;6.844;2022-08-14T05:38:13;21.00;48.70
35497;DHT22;21609;49.298;6.844;2022-08-14T05:40:42;21.00;48.80
35497;DHT22;21609;49.298;6.844;2022-08-14T05:43:09;21.20;48.80
35497;DHT22;21609;49.298;6.844;2022-08-14T05:45:35;21.20;48.70
35497;DHT22;21609;49.298;6.844;2022-08-14T05:48:02;21.40;48.40
35497;DHT22;21609;49.298;6.844;2022-08-14T05:50:28;21.50;48.30
35497;DHT22;21609;49.298;6.844;2022-08-14T05:52:54;21.50;48.40
35497;DHT22;21609;49.298;6.844;2022-08-14T05:55:20;21.70;48.20
35497;DHT22;21609;49.298;6.844;2022-08-14T05:58:06;21.70;48.20
35497;DHT22;21609;49.298;6.844;2022-08-14T06:00:38;21.60;48.40
35497;DHT22;21609;49.298;6.844;2022-08-14T06:03:06;21.60;48.50
35497;DHT22;21609;49.298;6.844;2022-08-14T06:05:32;21.80;48.50
35497;DHT22;21609;49.298;6.844;2022-08-14T06:07:58;21.80;48.80
35497;DHT22;21609;49.298;6.844;2022-08-14T06:10:25;21.90;48.60
35497;DHT22;21609;49.298;6.844;2022-08-14T06:12:51;22.00;48.50
35497;DHT22;21609;49.298;6.844;2022-08-14T06:15:17;22.10;48.30
35497;DHT22;21609;49.298;6.844;2022-08-14T06:17:50;22.00;48.40
35497;DHT22;21609;49.298;6.844;2022-08-14T06:20:17;22.10;48.70
35497;DHT22;21609;49.298;6.844;2022-08-14T06:22:44;22.10;48.90
35497;DHT22;21609;49.298;6.844;2022-08-14T06:25:11;22.20;48.90
35497;DHT22;21609;49.298;6.844;2022-08-14T06:27:39;22.30;49.30
35497;DHT22;21609;49.298;6.844;2022-08-14T06:30:07;22.40;49.70
35497;DHT22;21609;49.298;6.844;2022-08-14T06:32:33;22.40;49.20
35497;DHT22;21609;49.298;6.844;2022-08-14T06:34:59;22.40;49.30
35497;DHT22;21609;49.298;6.844;2022-08-14T06:37:25;22.50;49.10
35497;DHT22;21609;49.298;6.844;2022-08-14T06:39:51;22.50;48.50
35497;DHT22;21609;49.298;6.844;2022-08-14T06:42:17;22.60;48.80
35497;DHT22;21609;49.298;6.844;2022-08-14T06:44:42;22.70;48.80
35497;DHT22;21609;49.298;6.844;2022-08-14T06:47:09;22.70;48.90
35497;DHT22;21609;49.298;6.844;2022-08-14T06:49:35;22.70;49.00
35497;DHT22;21609;49.298;6.844;2022-08-14T06:52:02;22.70;49.10
35497;DHT22;21609;49.298;6.844;2022-08-14T06:54:28;22.70;48.90
35497;DHT22;21609;49.298;6.844;2022-08-14T06:56:53;22.70;49.00
35497;DHT22;21609;49.298;6.844;2022-08-14T06:59:19;22.70;49.10
35497;DHT22;21609;49.298;6.844;2022-08-14T07:01:44;22.70;49.30
35497;DHT22;21609;49.298;6.844;2022-08-14T07:04:29;22.70;49.60
35497;DHT22;21609;49.298;6.844;2022-08-14T07:07:13;22.70;50.00
35497;DHT22;21609;49.298;6.844;2022-08-14T07:09:38;22.70;49.80
35497;DHT22;21609;49.298;6.844;2022-08-14T07:12:04;22.70;49.40
35497;DHT22;21609;49.298;6.844;2022-08-14T07:14:29;22.80;49.60
35497;DHT22;21609;49.298;6.844;2022-08-14T07:16:55;22.80;49.30
35497;DHT22;21609;49.298;6.844;2022-08-14T07:19:21;22.80;49.20
35497;DHT22;21609;49.298;6.844;2022-08-14T07:21:48;22.80;49.10
35497;DHT22;21609;49.298;6.844;2022-08-14T07:24:13;22.80;48.90
35497;DHT22;21609;49.298;6.844;2022-08-14T07:26:39;22.80;48.80
35497;DHT22;21609;49.298;6.844;2022-08-14T07:29:05;22.80;48.60
35497;DHT22;21609;49.298;6.844;2022-08-14T07:31:31;22.80;48.50
35497;DHT22;21609;49.298;6.844;2022-08-14T07:33:56;22.80;48.50
35497;DHT22;21609;49.298;6.844;2022-08-14T07:36:22;22.90;48.10
35497;DHT22;21609;49.298;6.844;2022-08-14T07:38:47;22.90;48.10
35497;DHT22;21609;49.298;6.844;2022-08-14T07:41:13;22.90;48.20
35497;DHT22;21609;49.298;6.844;2022-08-14T07:43:42;22.90;48.10
35497;DHT22;21609;49.298;6.844;2022-08-14T07:46:08;23.00;48.10
35497;DHT22;21609;49.298;6.844;2022-08-14T07:48:38;23.00;48.50
35497;DHT22;21609;49.298;6.844;2022-08-14T07:51:04;23.00;47.90
35497;DHT22;21609;49.298;6.844;2022-08-14T07:53:30;23.00;47.90
35497;DHT22;21609;49.298;6.844;2022-08-14T07:55:56;23.00;47.90
35497;DHT22;21609;49.298;6.844;2022-08-14T07:58:22;23.00;47.80
35497;DHT22;21609;49.298;6.844;2022-08-14T08:00:48;23.00;47.80
35497;DHT22;21609;49.298;6.844;2022-08-14T08:03:15;23.00;47.60
35497;DHT22;21609;49.298;6.844;2022-08-14T08:05:42;23.00;47.70
35497;DHT22;21609;49.298;6.844;2022-08-14T08:08:09;23.00;47.60
35497;DHT22;21609;49.298;6.844;2022-08-14T08:10:35;23.10;47.50
35497;DHT22;21609;49.298;6.844;2022-08-14T08:13:12;23.10;47.60
35497;DHT22;21609;49.298;6.844;2022-08-14T08:15:47;23.10;47.50
35497;DHT22;21609;49.298;6.844;2022-08-14T08:18:15;23.10;47.50
35497;DHT22;21609;49.298;6.844;2022-08-14T08:20:52;23.10;47.50
35497;DHT22;21609;49.298;6.844;2022-08-14T08:23:21;23.10;47.40
35497;DHT22;21609;49.298;6.844;2022-08-14T08:25:49;23.10;47.40
35497;DHT22;21609;49.298;6.844;2022-08-14T08:28:23;23.20;47.40
35497;DHT22;21609;49.298;6.844;2022-08-14T08:30:51;23.20;47.30
35497;DHT22;21609;49.298;6.844;2022-08-14T08:33:18;23.20;47.40
35497;DHT22;21609;49.298;6.844;2022-08-14T08:35:45;23.20;47.20
35497;DHT22;21609;49.298;6.844;2022-08-14T08:38:14;23.20;47.30
35497;DHT22;21609;49.298;6.844;2022-08-14T08:40:42;23.20;47.30
35497;DHT22;21609;49.298;6.844;2022-08-14T08:43:33;23.20;47.40
35497;DHT22;21609;49.298;6.844;2022-08-14T08:48:28;23.20;47.20
35497;DHT22;21609;49.298;6.844;2022-08-14T08:50:56;23.30;47.20
35497;DHT22;21609;49.298;6.844;2022-08-14T08:53:28;23.30;47.20
35497;DHT22;21609;49.298;6.844;2022-08-14T08:55:54;23.30;47.20
35497;DHT22;21609;49.298;6.844;2022-08-14T08:58:20;23.30;47.10
35497;DHT22;21609;49.298;6.844;2022-08-14T09:00:51;23.30;47.00
35497;DHT22;21609;49.298;6.844;2022-08-14T09:03:20;23.30;47.10
35497;DHT22;21609;49.298;6.844;2022-08-14T09:05:55;23.30;47.20
35497;DHT22;21609;49.298;6.844;2022-08-14T09:08:26;23.30;47.10
35497;DHT22;21609;49.298;6.844;2022-08-14T09:10:53;23.30;47.20
35497;DHT22;21609;49.298;6.844;2022-08-14T09:13:19;23.30;47.10
35497;DHT22;21609;49.298;6.844;2022-08-14T09:15:47;23.30;47.00
35497;DHT22;21609;49.298;6.844;2022-08-14T09:18:15;23.30;46.90
35497;DHT22;21609;49.298;6.844;2022-08-14T09:20:43;23.40;47.00
35497;DHT22;21609;49.298;6.844;2022-08-14T09:23:11;23.40;46.80
35497;DHT22;21609;49.298;6.844;2022-08-14T09:25:38;23.40;46.80
35497;DHT22;21609;49.298;6.844;2022-08-14T09:28:05;23.40;46.80
35497;DHT22;21609;49.298;6.844;2022-08-14T09:30:34;23.40;46.80
35497;DHT22;21609;49.298;6.844;2022-08-14T09:38:57;23.40;46.60
35497;DHT22;21609;49.298;6.844;2022-08-14T09:42:02;23.40;46.60
35497;DHT22;21609;49.298;6.844;2022-08-14T09:44:37;23.50;46.60
35497;DHT22;21609;49.298;6.844;2022-08-14T09:47:06;23.50;46.70
35497;DHT22;21609;49.298;6.844;2022-08-14T09:49:36;23.50;46.60
35497;DHT22;21609;49.298;6.844;2022-08-14T09:52:08;23.50;46.60
35497;DHT22;21609;49.298;6.844;2022-08-14T09:54:43;23.50;46.60
35497;DHT22;21609;49.298;6.844;2022-08-14T09:57:10;23.50;46.50
35497;DHT22;21609;49.298;6.844;2022-08-14T09:59:47;23.50;46.50
35497;DHT22;21609;49.298;6.844;2022-08-14T10:02:29;23.50;46.50
35497;DHT22;21609;49.298;6.844;2022-08-14T10:05:05;23.50;46.40
35497;DHT22;21609;49.298;6.844;2022-08-14T10:07:33;23.50;46.50
35497;DHT22;21609;49.298;6.844;2022-08-14T10:09:59;23.60;46.60
35497;DHT22;21609;49.298;6.844;2022-08-14T10:12:40;23.50;46.50
35497;DHT22;21609;49.298;6.844;2022-08-14T10:15:14;23.60;46.50
35497;DHT22;21609;49.298;6.844;2022-08-14T10:17:41;23.50;46.50
35497;DHT22;21609;49.298;6.844;2022-08-14T10:20:06;23.60;47.10
35497;DHT22;21609;49.298;6.844;2022-08-14T10:22:35;23.60;46.50
35497;DHT22;21609;49.298;6.844;2022-08-14T10:25:09;23.60;46.60
35497;DHT22;21609;49.298;6.844;2022-08-14T10:27:36;23.60;46.50
35497;DHT22;21609;49.298;6.844;2022-08-14T10:30:02;23.60;46.50
35497;DHT22;21609;49.298;6.844;2022-08-14T10:32:29;23.60;46.50
35497;DHT22;21609;49.298;6.844;2022-08-14T10:35:08;23.60;46.50
35497;DHT22;21609;49.298;6.844;2022-08-14T10:37:38;23.60;46.40
35497;DHT22;21609;49.298;6.844;2022-08-14T10:40:05;23.60;46.50
35497;DHT22;21609;49.298;6.844;2022-08-14T10:42:36;23.60;46.50
35497;DHT22;21609;49.298;6.844;2022-08-14T10:45:02;23.60;46.60
35497;DHT22;21609;49.298;6.844;2022-08-14T10:47:35;23.70;46.30
35497;DHT22;21609;49.298;6.844;2022-08-14T10:50:05;23.70;46.40
35497;DHT22;21609;49.298;6.844;2022-08-14T10:52:32;23.70;46.50
35497;DHT22;21609;49.298;6.844;2022-08-14T10:55:16;23.70;46.40
35497;DHT22;21609;49.298;6.844;2022-08-14T10:57:51;23.70;46.30
35497;DHT22;21609;49.298;6.844;2022-08-14T11:00:20;23.70;46.30
35497;DHT22;21609;49.298;6.844;2022-08-14T11:03:01;23.70;46.30
35497;DHT22;21609;49.298;6.844;2022-08-14T11:05:39;23.70;46.30
35497;DHT22;21609;49.298;6.844;2022-08-14T11:08:08;23.70;46.30
35497;DHT22;21609;49.298;6.844;2022-08-14T11:10:41;23.70;46.90
35497;DHT22;21609;49.298;6.844;2022-08-14T11:13:07;23.70;46.20
35497;DHT22;21609;49.298;6.844;2022-08-14T11:15:35;23.80;46.20
35497;DHT22;21609;49.298;6.844;2022-08-14T11:18:01;23.70;46.10
35497;DHT22;21609;49.298;6.844;2022-08-14T11:20:28;23.80;46.10
35497;DHT22;21609;49.298;6.844;2022-08-14T11:22:57;23.70;46.10
35497;DHT22;21609;49.298;6.844;2022-08-14T11:25:26;23.80;46.10
35497;DHT22;21609;49.298;6.844;2022-08-14T11:27:55;23.80;46.10
35497;DHT22;21609;49.298;6.844;2022-08-14T11:30:23;23.80;46.00
35497;DHT22;21609;49.298;6.844;2022-08-14T11:32:50;23.80;45.90
35497;DHT22;21609;49.298;6.844;2022-08-14T11:35:18;23.80;45.90
35497;DHT22;21609;49.298;6.844;2022-08-14T11:37:51;23.80;45.90
35497;DHT22;21609;49.298;6.844;2022-08-14T11:40:19;23.80;45.90
35497;DHT22;21609;49.298;6.844;2022-08-14T11:42:46;23.80;46.00
35497;DHT22;21609;49.298;6.844;2022-08-14T11:45:12;23.80;46.00
35497;DHT22;21609;49.298;6.844;2022-08-14T11:47:38;23.80;46.00
35497;DHT22;21609;49.298;6.844;2022-08-14T11:50:12;23.80;46.00
35497;DHT22;21609;49.298;6.844;2022-08-14T11:52:37;23.80;46.00
35497;DHT22;21609;49.298;6.844;2022-08-14T11:55:07;23.80;45.90
35497;DHT22;21609;49.298;6.844;2022-08-14T11:57:33;23.80;46.10
35497;DHT22;21609;49.298;6.844;2022-08-14T12:00:05;23.90;46.00
35497;DHT22;21609;49.298;6.844;2022-08-14T12:02:32;23.90;45.90
35497;DHT22;21609;49.298;6.844;2022-08-14T12:04:58;23.80;45.90
35497;DHT22;21609;49.298;6.844;2022-08-14T12:07:24;23.90;45.90
35497;DHT22;21609;49.298;6.844;2022-08-14T12:09:55;23.90;45.90
35497;DHT22;21609;49.298;6.844;2022-08-14T12:12:26;23.90;46.00
35497;DHT22;21609;49.298;6.844;2022-08-14T12:14:58;23.90;46.00
35497;DHT22;21609;49.298;6.844;2022-08-14T12:17:26;23.90;45.80
35497;DHT22;21609;49.298;6.844;2022-08-14T12:19:54;23.90;45.70
35497;DHT22;21609;49.298;6.844;2022-08-14T12:22:36;23.90;45.80
35497;DHT22;21609;49.298;6.844;2022-08-14T12:25:08;23.90;45.80
35497;DHT22;21609;49.298;6.844;2022-08-14T12:30:25;23.90;45.80
35497;DHT22;21609;49.298;6.844;2022-08-14T12:32:51;23.90;45.80
35497;DHT22;21609;49.298;6.844;2022-08-14T12:35:17;23.90;45.70
35497;DHT22;21609;49.298;6.844;2022-08-14T12:37:49;23.90;45.60
35497;DHT22;21609;49.298;6.844;2022-08-14T12:40:16;24.00;45.50
35497;DHT22;21609;49.298;6.844;2022-08-14T12:42:43;24.00;45.50
35497;DHT22;21609;49.298;6.844;2022-08-14T12:45:11;23.90;45.50
35497;DHT22;21609;49.298;6.844;2022-08-14T12:47:41;24.00;45.50
35497;DHT22;21609;49.298;6.844;2022-08-14T12:50:09;24.00;45.70
35497;DHT22;21609;49.298;6.844;2022-08-14T12:52:39;24.00;45.70
35497;DHT22;21609;49.298;6.844;2022-08-14T12:55:08;24.00;45.50
35497;DHT22;21609;49.298;6.844;2022-08-14T12:57:42;24.00;45.50
35497;DHT22;21609;49.298;6.844;2022-08-14T13:02:44;24.00;45.50
35497;DHT22;21609;49.298;6.844;2022-08-14T13:05:12;24.00;45.50
35497;DHT22;21609;49.298;6.844;2022-08-14T13:07:38;24.00;45.30
35497;DHT22;21609;49.298;6.844;2022-08-14T13:10:09;24.00;45.50
35497;DHT22;21609;49.298;6.844;2022-08-14T13:12:37;24.00;45.60
35497;DHT22;21609;49.298;6.844;2022-08-14T13:15:05;24.00;45.50
35497;DHT22;21609;49.298;6.844;2022-08-14T13:17:31;24.00;45.50
35497;DHT22;21609;49.298;6.844;2022-08-14T13:20:03;24.00;45.30
35497;DHT22;21609;49.298;6.844;2022-08-14T13:22:29;24.00;45.20
35497;DHT22;21609;49.298;6.844;2022-08-14T13:24:55;24.00;45.20
35497;DHT22;21609;49.298;6.844;2022-08-14T13:27:22;24.00;45.20
35497;DHT22;21609;49.298;6.844;2022-08-14T13:29:50;24.00;45.10
35497;DHT22;21609;49.298;6.844;2022-08-14T13:32:23;24.10;45.20
35497;DHT22;21609;49.298;6.844;2022-08-14T13:34:50;24.10;45.20
35497;DHT22;21609;49.298;6.844;2022-08-14T13:37:17;24.10;45.10
35497;DHT22;21609;49.298;6.844;2022-08-14T13:39:50;24.10;45.00
35497;DHT22;21609;49.298;6.844;2022-08-14T13:42:17;24.10;45.00
35497;DHT22;21609;49.298;6.844;2022-08-14T13:44:48;24.10;44.90
35497;DHT22;21609;49.298;6.844;2022-08-14T13:47:20;24.10;44.80
35497;DHT22;21609;49.298;6.844;2022-08-14T13:49:47;24.10;44.80
35497;DHT22;21609;49.298;6.844;2022-08-14T13:52:16;24.20;44.80
35497;DHT22;21609;49.298;6.844;2022-08-14T13:54:45;24.10;44.70
35497;DHT22;21609;49.298;6.844;2022-08-14T13:57:12;24.10;44.80
35497;DHT22;21609;49.298;6.844;2022-08-14T13:59:44;24.20;44.80
35497;DHT22;21609;49.298;6.844;2022-08-14T14:02:10;24.10;44.70
35497;DHT22;21609;49.298;6.844;2022-08-14T14:04:41;24.10;44.70
35497;DHT22;21609;49.298;6.844;2022-08-14T14:07:09;24.20;44.80
35497;DHT22;21609;49.298;6.844;2022-08-14T14:09:43;24.20;44.90
35497;DHT22;21609;49.298;6.844;2022-08-14T14:12:09;24.20;44.90
35497;DHT22;21609;49.298;6.844;2022-08-14T14:14:36;24.20;44.70
35497;DHT22;21609;49.298;6.844;2022-08-14T14:17:03;24.20;44.70
35497;DHT22;21609;49.298;6.844;2022-08-14T14:19:31;24.20;44.90
35497;DHT22;21609;49.298;6.844;2022-08-14T14:22:00;24.20;44.90
35497;DHT22;21609;49.298;6.844;2022-08-14T14:24:28;24.20;44.80
35497;DHT22;21609;49.298;6.844;2022-08-14T14:26:57;24.20;44.80
35497;DHT22;21609;49.298;6.844;2022-08-14T14:29:25;24.20;44.80
35497;DHT22;21609;49.298;6.844;2022-08-14T14:31:51;24.20;45.00
35497;DHT22;21609;49.298;6.844;2022-08-14T14:34:17;24.20;45.10
35497;DHT22;21609;49.298;6.844;2022-08-14T14:36:49;24.20;44.90
35497;DHT22;21609;49.298;6.844;2022-08-14T14:39:15;24.20;44.80
35497;DHT22;21609;49.298;6.844;2022-08-14T14:41:42;24.20;44.90
35497;DHT22;21609;49.298;6.844;2022-08-14T14:44:11;24.20;44.90
35497;DHT22;21609;49.298;6.844;2022-08-14T14:46:38;24.20;44.90
35497;DHT22;21609;49.298;6.844;2022-08-14T14:49:07;24.20;45.00
35497;DHT22;21609;49.298;6.844;2022-08-14T14:51:39;24.20;44.90
35497;DHT22;21609;49.298;6.844;2022-08-14T14:54:06;24.20;45.00
35497;DHT22;21609;49.298;6.844;2022-08-14T14:56:33;24.20;45.00
35497;DHT22;21609;49.298;6.844;2022-08-14T14:58:59;24.20;44.90
35497;DHT22;21609;49.298;6.844;2022-08-14T15:01:25;24.20;44.90
35497;DHT22;21609;49.298;6.844;2022-08-14T15:03:50;24.20;45.00
35497;DHT22;21609;49.298;6.844;2022-08-14T15:06:23;24.20;45.00
35497;DHT22;21609;49.298;6.844;2022-08-14T15:08:49;24.20;44.90
35497;DHT22;21609;49.298;6.844;2022-08-14T15:11:17;24.20;44.90
35497;DHT22;21609;49.298;6.844;2022-08-14T15:13:43;24.20;44.90
35497;DHT22;21609;49.298;6.844;2022-08-14T15:16:10;24.20;44.90
35497;DHT22;21609;49.298;6.844;2022-08-14T15:18:36;24.30;45.00
35497;DHT22;21609;49.298;6.844;2022-08-14T15:21:01;24.20;45.00
35497;DHT22;21609;49.298;6.844;2022-08-14T15:23:29;24.20;45.00
35497;DHT22;21609;49.298;6.844;2022-08-14T15:25:55;24.30;45.00
35497;DHT22;21609;49.298;6.844;2022-08-14T15:28:22;24.20;44.90
35497;DHT22;21609;49.298;6.844;2022-08-14T15:30:48;24.30;45.00
35497;DHT22;21609;49.298;6.844;2022-08-14T15:33:14;24.30;45.00
35497;DHT22;21609;49.298;6.844;2022-08-14T15:35:40;24.30;45.00
35497;DHT22;21609;49.298;6.844;2022-08-14T15:38:06;24.30;45.00
35497;DHT22;21609;49.298;6.844;2022-08-14T15:40:37;24.30;45.10
35497;DHT22;21609;49.298;6.844;2022-08-14T15:43:04;24.30;45.00
35497;DHT22;21609;49.298;6.844;2022-08-14T15:45:30;24.30;45.10
35497;DHT22;21609;49.298;6.844;2022-08-14T15:47:56;24.30;45.00
35497;DHT22;21609;49.298;6.844;2022-08-14T15:50:22;24.30;45.00
35497;DHT22;21609;49.298;6.844;2022-08-14T15:52:50;24.30;45.10